createdAt,value
2022-07-29T00:01:20.445Z,14.10
2022-07-29T00:03:42.293Z,14.00
2022-07-29T00:06:05.488Z,14.00
2022-07-29T00:08:27.771Z,14.10
2022-07-29T00:10:49.749Z,14.10
2022-07-29T00:13:11.581Z,14.10
2022-07-29T00:15:33.646Z,14.10
2022-07-29T00:17:55.972Z,14.10
2022-07-29T00:20:17.882Z,14.10
2022-07-29T00:22:41.751Z,14.10
2022-07-29T00:25:04.005Z,14.10
2022-07-29T00:27:26.307Z,14.20
2022-07-29T00:29:48.350Z,14.20
2022-07-29T00:32:10.384Z,14.20
2022-07-29T00:34:50.288Z,14.20
2022-07-29T00:37:12.332Z,14.20
2022-07-29T00:39:35.493Z,14.30
2022-07-29T00:41:57.333Z,14.30
2022-07-29T00:44:19.214Z,14.40
2022-07-29T00:46:41.164Z,14.40
2022-07-29T00:49:03.136Z,14.40
2022-07-29T00:51:26.970Z,14.40
2022-07-29T00:53:51.874Z,14.40
2022-07-29T00:56:15.584Z,14.40
2022-07-29T00:58:37.897Z,14.40
2022-07-29T01:01:00.445Z,14.40
2022-07-29T01:03:22.576Z,14.50
2022-07-29T01:05:51.028Z,14.50
2022-07-29T01:08:15.902Z,14.50
2022-07-29T01:10:40.022Z,14.50
2022-07-29T01:13:03.833Z,14.60
2022-07-29T01:15:30.711Z,14.60
2022-07-29T01:17:58.306Z,14.60
2022-07-29T01:20:31.450Z,14.60
2022-07-29T01:23:07.718Z,14.60
2022-07-29T01:25:55.965Z,14.60
2022-07-29T01:28:49.519Z,14.60
2022-07-29T01:31:14.644Z,14.60
2022-07-29T01:33:53.213Z,14.70
2022-07-29T01:36:19.327Z,14.60
2022-07-29T01:38:44.679Z,14.60
2022-07-29T01:41:10.814Z,14.60
2022-07-29T01:43:38.183Z,14.60
2022-07-29T01:46:06.287Z,14.60
2022-07-29T01:48:36.675Z,14.60
2022-07-29T01:51:03.759Z,14.50
2022-07-29T01:53:37.705Z,14.60
2022-07-29T01:56:02.440Z,14.50
2022-07-29T01:58:26.521Z,14.50
2022-07-29T02:00:50.287Z,14.50
2022-07-29T02:03:15.593Z,14.50
2022-07-29T02:05:39.848Z,14.60
2022-07-29T02:08:03.924Z,14.60
2022-07-29T02:10:31.726Z,14.60
2022-07-29T02:12:55.920Z,14.60
2022-07-29T02:15:18.840Z,14.60
2022-07-29T02:17:44.630Z,14.60
2022-07-29T02:20:11.012Z,14.60
2022-07-29T02:22:37.102Z,14.60
2022-07-29T02:25:00.907Z,14.60
2022-07-29T02:27:25.224Z,14.60
2022-07-29T02:29:48.543Z,14.60
2022-07-29T02:32:11.605Z,14.60
2022-07-29T02:34:35.409Z,14.60
2022-07-29T02:36:58.657Z,14.60
2022-07-29T02:39:21.510Z,14.50
2022-07-29T02:41:47.159Z,14.50
2022-07-29T02:44:13.918Z,14.50
2022-07-29T02:46:38.779Z,14.60
2022-07-29T02:49:06.416Z,14.60
2022-07-29T02:51:43.499Z,14.70
2022-07-29T02:54:11.104Z,14.70
2022-07-29T02:56:35.927Z,14.70
2022-07-29T02:59:02.868Z,14.70
2022-07-29T03:01:29.136Z,14.70
2022-07-29T03:03:53.594Z,14.70
2022-07-29T03:06:28.823Z,14.70
2022-07-29T03:09:00.925Z,14.70
2022-07-29T03:11:42.459Z,14.70
2022-07-29T03:14:07.815Z,14.70
2022-07-29T03:16:31.609Z,14.70
2022-07-29T03:18:54.202Z,14.70
2022-07-29T03:21:16.093Z,14.70
2022-07-29T03:23:38.059Z,14.70
2022-07-29T03:26:00.092Z,14.70
2022-07-29T03:28:24.155Z,14.70
2022-07-29T03:30:49.393Z,14.70
2022-07-29T03:33:13.713Z,14.70
2022-07-29T03:35:35.544Z,14.80
2022-07-29T03:37:57.394Z,14.80
2022-07-29T03:40:24.721Z,14.80
2022-07-29T03:42:47.472Z,14.80
2022-07-29T03:45:15.924Z,14.80
2022-07-29T03:47:50.391Z,14.80
2022-07-29T03:50:16.642Z,14.70
2022-07-29T03:52:38.701Z,14.70
2022-07-29T03:55:01.166Z,14.80
2022-07-29T03:57:26.621Z,14.80
2022-07-29T03:59:49.180Z,14.80
2022-07-29T04:02:14.905Z,14.80
2022-07-29T04:04:39.559Z,14.80
2022-07-29T04:07:01.453Z,14.80
2022-07-29T04:09:23.399Z,14.80
2022-07-29T04:12:01.448Z,14.80
2022-07-29T04:14:25.563Z,14.80
2022-07-29T04:16:47.462Z,14.80
2022-07-29T04:19:10.645Z,14.80
2022-07-29T04:21:32.625Z,14.80
2022-07-29T04:23:54.554Z,14.80
2022-07-29T04:26:16.561Z,14.80
2022-07-29T04:28:40.476Z,14.80
2022-07-29T04:31:02.734Z,14.80
2022-07-29T04:33:24.963Z,14.80
2022-07-29T04:35:50.246Z,14.80
2022-07-29T04:38:15.523Z,14.80
2022-07-29T04:40:38.539Z,14.80
2022-07-29T04:43:01.711Z,14.90
2022-07-29T04:45:27.444Z,14.80
2022-07-29T04:47:49.332Z,14.90
2022-07-29T04:50:11.924Z,14.90
2022-07-29T04:52:38.537Z,14.90
2022-07-29T04:55:00.404Z,15.00
2022-07-29T04:57:22.448Z,15.00
2022-07-29T04:59:44.658Z,15.00
2022-07-29T05:02:06.572Z,15.10
2022-07-29T05:04:28.438Z,15.10
2022-07-29T05:06:50.582Z,15.10
2022-07-29T05:09:14.198Z,15.20
2022-07-29T05:11:36.157Z,15.20
2022-07-29T05:13:58.060Z,15.20
2022-07-29T05:16:20.071Z,15.20
2022-07-29T05:18:41.867Z,15.20
2022-07-29T05:21:03.747Z,15.20
2022-07-29T05:23:25.603Z,15.30
2022-07-29T05:25:48.742Z,15.30
2022-07-29T05:28:10.936Z,15.20
2022-07-29T05:30:33.060Z,15.30
2022-07-29T05:32:55.278Z,15.30
2022-07-29T05:35:18.069Z,15.30
2022-07-29T05:37:40.761Z,15.30
2022-07-29T05:40:03.522Z,15.30
2022-07-29T05:42:27.254Z,15.40
2022-07-29T05:44:49.358Z,15.40
2022-07-29T05:47:12.414Z,15.40
2022-07-29T05:49:34.306Z,15.50
2022-07-29T05:51:56.253Z,15.40
2022-07-29T05:54:18.630Z,15.40
2022-07-29T05:56:40.770Z,15.40
2022-07-29T05:59:04.236Z,15.50
2022-07-29T06:01:40.743Z,15.50
2022-07-29T06:04:02.925Z,15.50
2022-07-29T06:06:24.913Z,15.60
2022-07-29T06:08:46.930Z,15.70
2022-07-29T06:11:09.369Z,15.70
2022-07-29T06:13:31.701Z,15.70
2022-07-29T06:15:55.015Z,15.90
2022-07-29T06:18:16.991Z,15.90
2022-07-29T06:20:38.913Z,16.00
2022-07-29T06:23:02.065Z,16.10
2022-07-29T06:25:23.965Z,16.20
2022-07-29T06:27:45.901Z,16.30
2022-07-29T06:30:09.001Z,16.40
2022-07-29T06:32:32.182Z,16.50
2022-07-29T06:35:02.733Z,16.60
2022-07-29T06:37:36.150Z,16.60
2022-07-29T06:40:13.961Z,16.70
2022-07-29T06:42:36.077Z,16.90
2022-07-29T06:44:59.181Z,16.90
2022-07-29T06:47:21.343Z,17.00
2022-07-29T06:49:44.539Z,17.10
2022-07-29T06:52:06.874Z,17.20
2022-07-29T06:54:29.039Z,17.30
2022-07-29T06:56:51.053Z,17.30
2022-07-29T06:59:14.108Z,17.30
2022-07-29T07:01:37.242Z,17.40
2022-07-29T07:03:59.271Z,17.40
2022-07-29T07:06:22.589Z,17.50
2022-07-29T07:08:44.624Z,17.50
2022-07-29T07:11:08.059Z,17.60
2022-07-29T07:13:35.031Z,17.70
2022-07-29T07:15:58.860Z,17.70
2022-07-29T07:18:21.036Z,17.80
2022-07-29T07:20:43.670Z,17.80
2022-07-29T07:23:06.987Z,17.90
2022-07-29T07:25:28.980Z,18.00
2022-07-29T07:27:51.078Z,18.00
2022-07-29T07:30:13.534Z,18.20
2022-07-29T07:32:36.092Z,18.30
2022-07-29T07:34:58.541Z,18.40
2022-07-29T07:37:21.503Z,18.50
2022-07-29T07:39:45.128Z,18.60
2022-07-29T07:42:07.301Z,18.60
2022-07-29T07:44:29.342Z,18.80
2022-07-29T07:46:51.388Z,19.00
2022-07-29T07:49:13.662Z,19.30
2022-07-29T07:51:35.677Z,19.40
2022-07-29T07:53:57.504Z,19.40
2022-07-29T07:56:21.407Z,19.60
2022-07-29T07:58:44.998Z,19.70
2022-07-29T08:01:07.193Z,19.70
2022-07-29T08:03:29.660Z,19.80
2022-07-29T08:05:52.744Z,20.00
2022-07-29T08:08:14.571Z,20.20
2022-07-29T08:10:54.380Z,20.40
2022-07-29T08:13:17.663Z,20.60
2022-07-29T08:15:41.916Z,20.80
2022-07-29T08:18:08.728Z,20.90
2022-07-29T08:20:30.914Z,21.20
2022-07-29T08:22:54.372Z,21.20
2022-07-29T08:25:16.954Z,21.20
2022-07-29T08:27:43.797Z,21.30
2022-07-29T08:30:10.975Z,21.30
2022-07-29T08:32:52.703Z,21.50
2022-07-29T08:35:15.064Z,21.40
2022-07-29T08:37:37.096Z,21.40
2022-07-29T08:39:59.346Z,21.50
2022-07-29T08:42:21.628Z,21.60
2022-07-29T08:44:43.578Z,21.70
2022-07-29T08:47:07.370Z,21.70
2022-07-29T08:49:29.533Z,21.70
2022-07-29T08:51:52.393Z,21.70
2022-07-29T08:54:19.206Z,21.80
2022-07-29T08:56:41.915Z,21.90
2022-07-29T08:59:05.717Z,22.10
2022-07-29T09:01:35.894Z,22.10
2022-07-29T09:04:07.727Z,22.30
2022-07-29T09:06:34.301Z,22.30
2022-07-29T09:08:58.147Z,22.40
2022-07-29T09:11:20.606Z,22.50
2022-07-29T09:13:43.148Z,22.50
2022-07-29T09:16:09.406Z,22.50
2022-07-29T09:18:35.909Z,22.60
2022-07-29T09:21:16.783Z,22.80
2022-07-29T09:23:38.899Z,22.80
2022-07-29T09:26:07.519Z,22.80
2022-07-29T09:28:29.340Z,22.90
2022-07-29T09:30:56.437Z,22.90
2022-07-29T09:33:18.595Z,23.00
2022-07-29T09:35:41.594Z,23.10
2022-07-29T09:38:19.793Z,23.40
2022-07-29T09:40:42.332Z,23.30
2022-07-29T09:43:12.369Z,23.30
2022-07-29T09:45:35.939Z,23.40
2022-07-29T09:47:59.864Z,23.50
2022-07-29T09:50:24.823Z,23.70
2022-07-29T09:52:48.737Z,23.90
2022-07-29T09:55:13.641Z,23.90
2022-07-29T09:57:40.503Z,23.90
2022-07-29T10:00:06.371Z,24.10
2022-07-29T10:02:39.306Z,24.40
2022-07-29T10:05:01.950Z,24.60
2022-07-29T10:07:24.564Z,24.50
2022-07-29T10:09:54.211Z,24.50
2022-07-29T10:12:17.492Z,24.60
2022-07-29T10:14:40.437Z,24.70
2022-07-29T10:17:03.313Z,24.90
2022-07-29T10:19:26.347Z,25.00
2022-07-29T10:21:48.331Z,25.30
2022-07-29T10:24:14.850Z,25.30
2022-07-29T10:26:41.794Z,25.30
2022-07-29T10:29:05.348Z,25.50
2022-07-29T10:31:38.302Z,25.80
2022-07-29T10:34:08.639Z,25.90
2022-07-29T10:36:44.332Z,26.10
2022-07-29T10:39:15.616Z,26.30
2022-07-29T10:42:01.367Z,26.40
2022-07-29T10:44:28.592Z,26.20
2022-07-29T10:46:51.461Z,26.20
2022-07-29T10:49:16.332Z,26.40
2022-07-29T10:51:59.475Z,26.50
2022-07-29T10:54:37.542Z,26.60
2022-07-29T10:57:16.929Z,26.70
2022-07-29T10:59:41.014Z,26.50
2022-07-29T11:02:28.219Z,26.50
2022-07-29T11:05:05.237Z,26.50
2022-07-29T11:07:45.538Z,26.70
2022-07-29T11:10:26.981Z,26.80
2022-07-29T11:12:53.772Z,26.60
2022-07-29T11:15:20.063Z,26.60
2022-07-29T11:18:15.154Z,26.70
2022-07-29T11:20:43.399Z,26.70
2022-07-29T11:23:33.746Z,26.90
2022-07-29T11:26:29.562Z,27.10
2022-07-29T11:29:02.862Z,27.00
2022-07-29T11:31:37.743Z,27.00
2022-07-29T11:37:18.590Z,26.80
2022-07-29T11:39:44.289Z,26.70
2022-07-29T11:42:41.751Z,26.70
2022-07-29T11:45:41.325Z,26.80
2022-07-29T11:47:54.956Z,26.90
2022-07-29T11:50:19.019Z,26.90
2022-07-29T11:52:50.275Z,27.00
2022-07-29T11:55:14.844Z,26.90
2022-07-29T11:57:37.590Z,26.90
2022-07-29T12:00:04.751Z,26.90
2022-07-29T12:02:42.974Z,26.90
2022-07-29T12:05:10.827Z,26.90
2022-07-29T12:07:03.447Z,26.90
2022-07-29T12:07:35.387Z,27.00
2022-07-29T12:09:57.451Z,26.90
2022-07-29T12:12:19.934Z,27.10
2022-07-29T12:14:47.789Z,27.20
2022-07-29T12:17:30.504Z,27.40
2022-07-29T12:19:53.018Z,27.30
2022-07-29T12:22:26.896Z,27.20
2022-07-29T12:24:49.645Z,27.10
2022-07-29T12:27:11.620Z,26.90
2022-07-29T12:29:35.430Z,26.80
2022-07-29T12:31:59.301Z,26.80
2022-07-29T12:34:25.158Z,26.70
2022-07-29T12:36:46.985Z,26.60
2022-07-29T12:39:10.984Z,26.50
2022-07-29T12:41:33.300Z,26.40
2022-07-29T12:43:56.467Z,26.20
2022-07-29T12:46:18.745Z,26.10
2022-07-29T12:48:42.547Z,26.10
2022-07-29T12:51:06.889Z,26.00
2022-07-29T12:53:29.562Z,26.00
2022-07-29T12:55:54.385Z,26.10
2022-07-29T12:58:27.271Z,26.20
2022-07-29T13:01:00.071Z,26.20
2022-07-29T13:03:22.320Z,26.10
2022-07-29T13:05:49.342Z,25.90
2022-07-29T13:08:20.105Z,25.80
2022-07-29T13:10:43.058Z,25.70
2022-07-29T13:13:10.258Z,25.50
2022-07-29T13:15:33.172Z,25.30
2022-07-29T13:17:55.036Z,25.10
2022-07-29T13:20:17.217Z,25.00
2022-07-29T13:22:39.573Z,24.80
2022-07-29T13:25:03.125Z,24.80
2022-07-29T13:27:27.292Z,24.60
2022-07-29T13:29:52.229Z,24.60
2022-07-29T13:32:14.873Z,24.40
2022-07-29T13:34:36.797Z,24.40
2022-07-29T13:36:58.728Z,24.30
2022-07-29T13:39:20.737Z,24.30
2022-07-29T13:41:42.561Z,24.20
2022-07-29T13:44:05.555Z,24.10
2022-07-29T13:46:28.964Z,24.10
2022-07-29T13:48:51.556Z,24.10
2022-07-29T13:51:14.149Z,24.10
2022-07-29T13:53:35.978Z,24.00
2022-07-29T13:55:57.883Z,23.90
2022-07-29T13:58:19.915Z,23.80
2022-07-29T14:00:42.579Z,23.80
2022-07-29T14:03:07.294Z,23.70
2022-07-29T14:05:29.299Z,23.60
2022-07-29T14:07:51.482Z,23.40
2022-07-29T14:10:17.196Z,23.20
2022-07-29T14:12:42.864Z,23.10
2022-07-29T14:15:05.602Z,23.00
2022-07-29T14:17:27.425Z,22.80
2022-07-29T14:19:50.805Z,22.70
2022-07-29T14:22:12.653Z,22.70
2022-07-29T14:24:36.982Z,22.60
2022-07-29T14:26:59.989Z,22.60
2022-07-29T14:29:22.437Z,22.50
2022-07-29T14:31:44.718Z,22.50
2022-07-29T14:34:06.718Z,22.40
2022-07-29T14:36:29.950Z,22.40
2022-07-29T14:38:51.776Z,22.40
2022-07-29T14:41:13.570Z,22.40
2022-07-29T14:43:35.935Z,22.40
2022-07-29T14:46:02.925Z,22.30
2022-07-29T14:48:27.204Z,22.20
2022-07-29T14:50:49.153Z,22.20
2022-07-29T14:53:12.970Z,22.10
2022-07-29T14:55:36.341Z,22.00
2022-07-29T14:58:08.652Z,22.00
2022-07-29T15:00:34.335Z,21.90
2022-07-29T15:03:03.531Z,21.90
2022-07-29T15:05:25.820Z,21.80
2022-07-29T15:07:47.640Z,21.90
2022-07-29T15:10:10.900Z,21.80
2022-07-29T15:12:36.711Z,21.80
2022-07-29T15:14:58.632Z,21.80
2022-07-29T15:17:21.286Z,21.70
2022-07-29T15:19:44.909Z,21.70
2022-07-29T15:22:07.213Z,21.60
2022-07-29T15:24:29.107Z,21.50
2022-07-29T15:26:52.972Z,21.50
2022-07-29T15:29:15.940Z,21.50
2022-07-29T15:31:37.952Z,21.50
2022-07-29T15:34:05.382Z,21.50
2022-07-29T15:36:50.805Z,21.60
2022-07-29T15:39:11.352Z,21.60
2022-07-29T15:41:33.241Z,21.70
2022-07-29T15:43:56.369Z,21.80
2022-07-29T15:46:37.740Z,21.80
2022-07-29T15:48:59.616Z,22.00
2022-07-29T15:51:22.607Z,22.10
2022-07-29T15:53:44.588Z,22.20
2022-07-29T15:56:15.698Z,22.30
2022-07-29T15:58:37.820Z,22.30
2022-07-29T16:01:01.643Z,22.50
2022-07-29T16:03:24.585Z,22.60
2022-07-29T16:05:46.572Z,22.70
2022-07-29T16:08:08.669Z,22.80
2022-07-29T16:10:30.655Z,22.90
2022-07-29T16:12:52.841Z,23.00
2022-07-29T16:15:14.651Z,23.10
2022-07-29T16:17:38.211Z,23.20
2022-07-29T16:20:00.352Z,23.20
2022-07-29T16:22:22.166Z,23.30
2022-07-29T16:24:44.416Z,23.30
2022-07-29T16:27:06.705Z,23.40
2022-07-29T16:29:29.029Z,23.50
2022-07-29T16:31:50.998Z,23.60
2022-07-29T16:34:14.332Z,23.70
2022-07-29T16:36:36.159Z,23.80
2022-07-29T16:38:58.113Z,23.80
2022-07-29T16:41:20.195Z,23.90
2022-07-29T16:43:42.133Z,23.90
2022-07-29T16:46:04.423Z,24.00
2022-07-29T16:48:26.789Z,24.10
2022-07-29T16:50:50.594Z,24.30
2022-07-29T16:53:12.578Z,24.50
2022-07-29T16:55:34.587Z,25.10
2022-07-29T16:57:56.633Z,25.80
2022-07-29T17:00:19.240Z,26.40
2022-07-29T17:02:41.481Z,26.70
2022-07-29T17:05:03.633Z,27.00
2022-07-29T17:07:26.976Z,27.80
2022-07-29T17:09:52.631Z,28.50
2022-07-29T17:12:17.233Z,28.40
2022-07-29T17:14:39.184Z,28.20
2022-07-29T17:17:03.160Z,28.00
2022-07-29T17:19:25.344Z,27.50
2022-07-29T17:21:48.971Z,27.00
2022-07-29T17:24:12.641Z,26.80
2022-07-29T17:26:34.523Z,26.90
2022-07-29T17:28:56.655Z,27.30
2022-07-29T17:31:18.956Z,27.90
2022-07-29T17:33:40.947Z,28.60
2022-07-29T17:36:20.522Z,29.00
2022-07-29T17:38:42.525Z,29.10
2022-07-29T17:41:09.711Z,29.20
2022-07-29T17:43:31.677Z,29.50
2022-07-29T17:45:55.878Z,30.20
2022-07-29T17:48:21.591Z,30.70
2022-07-29T17:50:47.108Z,30.90
2022-07-29T17:53:09.682Z,31.20
2022-07-29T17:55:39.421Z,31.30
2022-07-29T17:58:03.778Z,30.80
2022-07-29T18:00:26.249Z,30.20
2022-07-29T18:02:48.239Z,29.70
2022-07-29T18:05:10.254Z,29.10
2022-07-29T18:07:32.535Z,28.30
2022-07-29T18:09:58.616Z,27.60
2022-07-29T18:12:22.512Z,27.00
2022-07-29T18:14:45.699Z,26.50
2022-07-29T18:17:07.497Z,26.20
2022-07-29T18:19:29.687Z,26.30
2022-07-29T18:21:54.140Z,26.40
2022-07-29T18:24:17.647Z,26.40
2022-07-29T18:26:39.632Z,26.30
2022-07-29T18:29:01.547Z,26.10
2022-07-29T18:31:24.698Z,26.20
2022-07-29T18:33:46.340Z,26.50
2022-07-29T18:36:11.069Z,26.50
2022-07-29T18:38:34.385Z,26.20
2022-07-29T18:40:56.601Z,26.00
2022-07-29T18:43:18.577Z,25.90
2022-07-29T18:45:40.670Z,25.90
2022-07-29T18:48:08.338Z,25.80
2022-07-29T18:50:35.304Z,25.70
2022-07-29T18:52:58.700Z,25.40
2022-07-29T18:55:20.982Z,25.00
2022-07-29T18:57:55.522Z,24.50
2022-07-29T19:00:19.120Z,24.00
2022-07-29T19:02:41.298Z,23.60
2022-07-29T19:05:07.034Z,23.20
2022-07-29T19:07:29.857Z,23.00
2022-07-29T19:09:52.700Z,22.80
2022-07-29T19:12:14.517Z,22.70
2022-07-29T19:14:36.564Z,22.50
2022-07-29T19:16:58.982Z,22.20
2022-07-29T19:19:20.943Z,22.10
2022-07-29T19:21:44.155Z,21.90
2022-07-29T19:24:12.291Z,21.80
2022-07-29T19:26:41.995Z,21.60
2022-07-29T19:29:04.526Z,21.60
2022-07-29T19:31:26.641Z,21.40
2022-07-29T19:33:48.645Z,21.40
2022-07-29T19:36:10.624Z,21.30
2022-07-29T19:38:34.150Z,21.20
2022-07-29T19:40:57.383Z,21.10
2022-07-29T19:43:50.431Z,21.00
2022-07-29T19:46:01.654Z,20.90
2022-07-29T19:48:23.546Z,20.80
2022-07-29T19:50:46.540Z,20.70
2022-07-29T19:53:08.922Z,20.60
2022-07-29T19:55:32.496Z,20.50
2022-07-29T19:57:55.221Z,20.50
2022-07-29T20:00:18.128Z,20.40
2022-07-29T20:02:43.223Z,20.20
2022-07-29T20:05:06.589Z,20.10
2022-07-29T20:07:28.778Z,20.00
2022-07-29T20:09:50.616Z,19.80
2022-07-29T20:12:13.829Z,19.70
2022-07-29T20:14:35.766Z,19.50
2022-07-29T20:16:57.630Z,19.40
2022-07-29T20:19:19.535Z,19.20
2022-07-29T20:21:41.499Z,19.10
2022-07-29T20:24:04.371Z,19.10
2022-07-29T20:26:26.357Z,19.10
2022-07-29T20:28:49.802Z,19.00
2022-07-29T20:31:11.723Z,18.90
2022-07-29T20:33:33.628Z,18.80
2022-07-29T20:35:55.758Z,18.70
2022-07-29T20:38:18.466Z,18.60
2022-07-29T20:40:40.457Z,18.50
2022-07-29T20:43:02.498Z,18.40
2022-07-29T20:45:26.186Z,18.20
2022-07-29T20:47:48.173Z,18.10
2022-07-29T20:50:10.891Z,18.00
2022-07-29T20:52:32.725Z,17.90
2022-07-29T20:54:54.503Z,17.80
2022-07-29T20:57:16.464Z,17.80
2022-07-29T20:59:42.729Z,17.70
2022-07-29T21:02:09.009Z,17.60
2022-07-29T21:04:32.772Z,17.60
2022-07-29T21:06:54.659Z,17.50
2022-07-29T21:09:16.578Z,17.50
2022-07-29T21:11:44.336Z,17.50
2022-07-29T21:14:07.206Z,17.50
2022-07-29T21:16:30.693Z,17.50
2022-07-29T21:18:53.862Z,17.50
2022-07-29T21:21:17.139Z,17.50
2022-07-29T21:23:39.437Z,17.50
2022-07-29T21:26:01.726Z,17.50
2022-07-29T21:28:30.407Z,17.60
2022-07-29T21:30:52.329Z,17.60
2022-07-29T21:33:14.209Z,17.60
2022-07-29T21:36:06.601Z,17.70
2022-07-29T21:38:19.752Z,17.70
2022-07-29T21:40:41.487Z,17.70
2022-07-29T21:43:03.376Z,17.70
2022-07-29T21:45:25.240Z,17.70
2022-07-29T21:47:46.938Z,17.70
2022-07-29T21:50:09.490Z,17.70
2022-07-29T21:52:33.154Z,17.80
2022-07-29T21:54:55.465Z,17.80
2022-07-29T21:57:17.447Z,17.80
2022-07-29T21:59:39.449Z,17.80
2022-07-29T22:02:01.788Z,17.70
2022-07-29T22:04:23.887Z,17.70
2022-07-29T22:06:46.357Z,17.70
2022-07-29T22:09:09.692Z,17.70
2022-07-29T22:11:32.220Z,17.60
2022-07-29T22:13:54.432Z,17.60
2022-07-29T22:16:16.463Z,17.60
2022-07-29T22:18:38.361Z,17.50
2022-07-29T22:21:00.116Z,17.50
2022-07-29T22:23:22.190Z,17.50
2022-07-29T22:25:45.327Z,17.50
2022-07-29T22:28:07.243Z,17.50
2022-07-29T22:30:29.372Z,17.50
2022-07-29T22:32:51.007Z,17.40
2022-07-29T22:35:12.900Z,17.40
2022-07-29T22:37:35.025Z,17.30
2022-07-29T22:39:57.304Z,17.20
2022-07-29T22:42:21.032Z,17.10
2022-07-29T22:44:43.084Z,17.10
2022-07-29T22:47:05.279Z,17.00
2022-07-29T22:49:27.473Z,16.90
2022-07-29T22:51:49.418Z,16.90
2022-07-29T22:54:11.642Z,16.90
2022-07-29T22:56:33.760Z,16.80
2022-07-29T22:58:57.053Z,16.80
2022-07-29T23:01:37.318Z,16.70
2022-07-29T23:04:00.313Z,16.60
2022-07-29T23:06:22.277Z,16.60
2022-07-29T23:08:44.341Z,16.50
2022-07-29T23:11:06.595Z,16.50
2022-07-29T23:13:28.681Z,16.50
2022-07-29T23:15:51.948Z,16.50
2022-07-29T23:18:13.977Z,16.50
2022-07-29T23:20:36.074Z,16.50
2022-07-29T23:22:57.996Z,16.50
2022-07-29T23:25:20.075Z,16.60
2022-07-29T23:27:42.375Z,16.60
2022-07-29T23:30:06.196Z,16.60
2022-07-29T23:32:29.721Z,16.60
2022-07-29T23:34:51.712Z,16.60
2022-07-29T23:37:13.644Z,16.60
2022-07-29T23:39:35.622Z,16.60
2022-07-29T23:41:57.505Z,16.60
2022-07-29T23:44:19.496Z,16.60
2022-07-29T23:46:41.640Z,16.70
2022-07-29T23:49:04.698Z,16.70
2022-07-29T23:51:28.922Z,16.70
2022-07-29T23:53:54.043Z,16.80
2022-07-29T23:56:16.407Z,16.80
2022-07-29T23:58:38.250Z,16.80
